Forside
METAR-TAF:

METAR-TAF

Lufthavne :

Akita, Japan

Breddekreds: 39-37N, længdekreds: 140-13E, højde: 93 m

Aktuelle vejr

Denne rapport blev lavet for 27 minutter siden, kl. 07:00 UTC
Vind 9 kt fra vest
Temperatur 5°C
Fugtighed 56%
Tryk 1020 hPa
Sigt 10 km eller mere
Nogle få skyer i en højde af 4000 ft
Spredte skyer i en højde af 15000 ft
Brudte skyer

METAR: RJSK 250700Z 28009KT 9999 FEW040 SCT150 BKN/// 05/M03 Q1020

Tid: 16:27 (07:27 UTC)

Vejrudsigter

Denne rapport blev lavet for 2 timer og 19 minutter siden, kl. 05:08 UTC
Foreløbig gælder fra 25 på 06 UTC til 26 på 12 UTC
Vind 8 kt fra vestnordvest
Sigt 10 km eller mere
Nogle få skyer i en højde af 3000 ft
ændring
fra 25 på 12 UTC til 25 på 14 UTC
Vind 4 kt fra sydøst
ændring
fra 26 på 03 UTC til 26 på 06 UTC
Vind 5 kt fra vestnordvest

TAF: RJSK 250508Z 2506/2612 30008KT 9999 FEW030 BECMG 2512/2514 14004KT BECMG 2603/2606 30005KT

Vejrobservationer og prognoser fra mere end 4000 lufthavne (METAR og TAF).

De gule og røde prikker repræsenterer de meteorologiske stationer.

Flyt musen over at se navnet på stationen.

Så klik over at se vejr observationer og prognoser.

At skifte det kort: Klik på de grønne knapper med et sort kors for at zoome ind; på den grønne knap med en bindestreg for at zoome ud; eller på de grønne pile for tilstødende kort.


METAR-TAF: